Orchard, Nebraska
Current Conditions -  °F | °C
As of 3:15 AM on Wednesday 22 Oct 2014 (Local Time) from KONL Reporting Station
Clear Clear  
Wind Chill: 57°   Ceiling: Unl
Heat Index: 57°   Visibility: 10mi
Dew Point: 47°   Wind: 13mph
Humidity: 69%   Direction: 150°SSE
Pressure: 29.93"   Gusts: 17mph
Location:  42.34°N, 98.24°W
Report Text: KONL 220815Z AUTO 15011G15KT 10SM CLR 14/09 A2993 RMK AO2 T01400085
Loading
Personal Weather Stations






























Interactive Weather Map
Tropical Storm Tracking
New forecast layout! Learn more

10-Day Weather Forecast

Advertisements
Track Severe Weather on mobile